createdAt,value
2018-09-12T00:00:25.469Z,67.08
2018-09-12T00:02:55.451Z,67.72
2018-09-12T00:05:25.563Z,68.21
2018-09-12T00:07:56.750Z,67.84
2018-09-12T00:10:26.989Z,68.02
2018-09-12T00:12:57.448Z,68.59
2018-09-12T00:15:28.975Z,68.19
2018-09-12T00:17:59.113Z,68.49
2018-09-12T00:20:29.236Z,68.43
2018-09-12T00:22:59.298Z,68.77
2018-09-12T00:25:29.530Z,68.82
2018-09-12T00:27:59.569Z,69.23
2018-09-12T00:30:29.705Z,69.06
2018-09-12T00:32:59.982Z,69.84
2018-09-12T00:35:30.164Z,68.92
2018-09-12T00:38:01.637Z,69.69
2018-09-12T00:40:33.302Z,70.04
2018-09-12T00:43:03.374Z,69.68
2018-09-12T00:45:34.087Z,69.98
2018-09-12T00:50:43.964Z,69.43
2018-09-12T00:53:14.174Z,70.34
2018-09-12T00:55:44.253Z,70.23
2018-09-12T00:58:14.840Z,70.25
2018-09-12T01:00:45.195Z,70.81
2018-09-12T01:03:16.699Z,70.80
2018-09-12T01:05:49.901Z,70.83
2018-09-12T01:08:20.704Z,70.79
2018-09-12T01:10:51.013Z,70.98
2018-09-12T01:13:21.377Z,71.34
2018-09-12T01:15:51.559Z,71.83
2018-09-12T01:18:22.416Z,71.23
2018-09-12T01:20:52.937Z,71.51
2018-09-12T01:23:24.795Z,71.19
2018-09-12T01:25:55.828Z,71.53
2018-09-12T01:28:25.897Z,71.49
2018-09-12T01:30:56.579Z,71.33
2018-09-12T01:33:26.985Z,72.34
2018-09-12T01:35:57.836Z,71.68
2018-09-12T01:38:27.933Z,72.11
2018-09-12T01:40:59.581Z,72.73
2018-09-12T01:43:30.215Z,71.69
2018-09-12T01:46:00.303Z,72.25
2018-09-12T01:48:30.726Z,72.97
2018-09-12T01:51:00.867Z,71.93
2018-09-12T01:53:32.435Z,73.12
2018-09-12T01:56:02.563Z,72.98
2018-09-12T01:58:32.559Z,72.46
2018-09-12T02:01:02.677Z,73.12
2018-09-12T02:03:33.731Z,72.98
2018-09-12T02:06:04.153Z,72.84
2018-09-12T02:08:35.285Z,72.81
2018-09-12T02:11:08.167Z,73.52
2018-09-12T02:13:40.049Z,73.53
2018-09-12T02:16:10.143Z,73.56
2018-09-12T02:18:40.491Z,74.15
2018-09-12T02:21:11.073Z,73.40
2018-09-12T02:23:41.456Z,74.57
2018-09-12T02:26:11.699Z,74.13
2018-09-12T02:28:42.606Z,74.62
2018-09-12T02:31:14.103Z,74.10
2018-09-12T02:33:44.279Z,73.81
2018-09-12T02:36:19.643Z,73.53
2018-09-12T02:38:56.437Z,74.42
2018-09-12T02:41:27.954Z,73.70
2018-09-12T02:43:58.383Z,74.91
2018-09-12T02:46:28.435Z,74.57
2018-09-12T02:48:58.533Z,74.93
2018-09-12T02:51:29.617Z,74.56
2018-09-12T02:54:00.414Z,74.54
2018-09-12T02:56:31.434Z,74.98
2018-09-12T02:59:01.816Z,75.06
2018-09-12T03:01:32.582Z,74.89
2018-09-12T03:04:19.671Z,75.01
2018-09-12T03:06:50.212Z,75.81
2018-09-12T03:09:20.258Z,74.28
2018-09-12T03:11:51.080Z,75.56
2018-09-12T03:14:21.586Z,75.14
2018-09-12T03:16:51.951Z,74.55
2018-09-12T03:19:22.053Z,74.87
2018-09-12T03:21:59.707Z,74.58
2018-09-12T03:24:31.620Z,74.85
2018-09-12T03:27:01.709Z,74.56
2018-09-12T03:29:32.762Z,75.19
2018-09-12T03:32:02.961Z,76.12
2018-09-12T03:34:33.829Z,75.86
2018-09-12T03:37:04.250Z,75.06
2018-09-12T03:39:34.319Z,75.84
2018-09-12T03:42:04.429Z,75.59
2018-09-12T03:44:36.314Z,75.32
2018-09-12T03:47:06.449Z,75.51
2018-09-12T03:49:36.585Z,75.56
2018-09-12T03:52:07.470Z,76.40
2018-09-12T03:54:37.776Z,76.47
2018-09-12T03:57:08.958Z,76.52
2018-09-12T03:59:38.967Z,76.45
2018-09-12T04:02:09.044Z,76.73
2018-09-12T04:04:39.463Z,76.11
2018-09-12T04:07:10.582Z,76.34
2018-09-12T04:09:41.447Z,76.74
2018-09-12T04:12:11.541Z,75.78
2018-09-12T04:14:42.582Z,75.03
2018-09-12T04:17:14.545Z,75.70
2018-09-12T04:19:44.578Z,75.49
2018-09-12T04:22:14.673Z,76.04
2018-09-12T04:24:45.333Z,75.35
2018-09-12T04:27:15.533Z,76.46
2018-09-12T04:29:45.582Z,76.19
2018-09-12T04:32:17.653Z,76.05
2018-09-12T04:34:47.671Z,76.54
2018-09-12T04:37:17.788Z,76.27
2018-09-12T04:39:47.807Z,76.48
2018-09-12T04:42:17.996Z,76.52
2018-09-12T04:44:48.224Z,76.45
2018-09-12T04:47:18.762Z,76.15
2018-09-12T04:49:50.117Z,76.00
2018-09-12T04:52:20.676Z,76.42
2018-09-12T04:54:50.842Z,76.51
2018-09-12T04:57:21.821Z,76.20
2018-09-12T04:59:52.068Z,76.42
2018-09-12T05:02:22.122Z,76.84
2018-09-12T05:04:52.892Z,76.54
2018-09-12T05:07:23.598Z,76.56
2018-09-12T05:09:53.782Z,76.47
2018-09-12T05:12:24.604Z,76.22
2018-09-12T05:14:54.642Z,76.43
2018-09-12T05:17:25.582Z,75.90
2018-09-12T05:19:55.742Z,75.99
2018-09-12T05:22:26.162Z,75.92
2018-09-12T05:24:56.432Z,75.14
2018-09-12T05:27:27.111Z,75.30
2018-09-12T05:30:01.738Z,75.05
2018-09-12T05:32:32.740Z,74.55
2018-09-12T05:35:06.234Z,74.20
2018-09-12T05:37:37.721Z,74.09
2018-09-12T05:40:08.181Z,73.35
2018-09-12T05:42:38.576Z,72.96
2018-09-12T05:45:08.966Z,72.84
2018-09-12T05:47:39.678Z,72.95
2018-09-12T05:50:10.246Z,72.74
2018-09-12T05:52:41.544Z,71.87
2018-09-12T05:55:11.686Z,71.34
2018-09-12T05:57:55.408Z,70.86
2018-09-12T06:00:28.191Z,70.04
2018-09-12T06:02:58.784Z,69.94
2018-09-12T06:05:28.930Z,69.41
2018-09-12T06:07:59.836Z,68.55
2018-09-12T06:10:32.078Z,67.11
2018-09-12T06:13:02.659Z,66.18
2018-09-12T06:15:34.122Z,64.77
2018-09-12T06:18:04.516Z,64.14
2018-09-12T06:20:36.123Z,63.99
2018-09-12T06:23:07.313Z,62.65
2018-09-12T06:25:38.376Z,60.97
2018-09-12T06:28:08.496Z,61.06
2018-09-12T06:30:39.332Z,59.47
2018-09-12T06:33:09.875Z,59.96
2018-09-12T06:35:40.925Z,59.27
2018-09-12T06:38:11.763Z,57.59
2018-09-12T06:40:43.221Z,56.05
2018-09-12T06:43:13.123Z,54.63
2018-09-12T06:45:43.407Z,52.75
2018-09-12T06:48:13.497Z,51.31
2018-09-12T06:50:43.976Z,51.02
2018-09-12T06:53:14.772Z,50.27
2018-09-12T06:55:45.033Z,49.13
2018-09-12T06:58:16.231Z,48.51
2018-09-12T07:00:47.774Z,48.27
2018-09-12T07:03:17.889Z,48.37
2018-09-12T07:05:47.993Z,48.81
2018-09-12T07:08:18.158Z,48.21
2018-09-12T07:10:49.221Z,47.23
2018-09-12T07:13:19.408Z,46.64
2018-09-12T07:15:51.261Z,46.00
2018-09-12T07:18:21.415Z,45.96
2018-09-12T07:20:52.894Z,46.04
2018-09-12T07:23:23.002Z,47.17
2018-09-12T07:25:53.988Z,46.12
2018-09-12T07:28:26.090Z,44.44
2018-09-12T07:30:57.960Z,44.49
2018-09-12T07:33:29.067Z,43.65
2018-09-12T07:35:59.190Z,43.78
2018-09-12T07:38:30.246Z,43.35
2018-09-12T07:41:01.038Z,42.17
2018-09-12T07:46:56.931Z,43.15
2018-09-12T07:49:31.861Z,41.52
2018-09-12T07:52:02.115Z,42.71
2018-09-12T07:54:34.223Z,41.11
2018-09-12T07:57:06.023Z,41.52
2018-09-12T07:59:36.158Z,41.16
2018-09-12T08:02:07.032Z,38.54
2018-09-12T08:04:38.391Z,39.52
2018-09-12T08:07:09.103Z,39.50
2018-09-12T08:09:39.327Z,39.32
2018-09-12T08:12:10.187Z,36.99
2018-09-12T08:14:41.289Z,36.90
2018-09-12T08:17:11.378Z,36.35
2018-09-12T08:19:41.513Z,37.59
2018-09-12T08:22:13.040Z,36.80
2018-09-12T08:24:45.057Z,37.05
2018-09-12T08:27:16.035Z,36.27
2018-09-12T08:29:48.870Z,35.48
2018-09-12T08:32:21.144Z,36.35
2018-09-12T08:35:02.050Z,34.57
2018-09-12T08:37:38.391Z,33.65
2018-09-12T08:40:08.744Z,32.11
2018-09-12T08:42:39.409Z,32.12
2018-09-12T08:45:09.827Z,32.38
2018-09-12T08:47:41.325Z,33.80
2018-09-12T08:50:11.889Z,33.76
2018-09-12T08:52:42.692Z,33.90
2018-09-12T08:55:14.806Z,31.99
2018-09-12T08:57:45.048Z,31.65
2018-09-12T09:00:16.295Z,30.69
2018-09-12T09:02:48.728Z,29.43
2018-09-12T09:05:19.872Z,28.20
2018-09-12T09:07:52.208Z,29.48
2018-09-12T09:10:23.525Z,28.70
2018-09-12T09:12:54.870Z,29.69
2018-09-12T09:15:28.254Z,28.88
2018-09-12T09:17:59.406Z,27.62
2018-09-12T09:20:30.053Z,27.75
2018-09-12T09:23:06.337Z,26.13
2018-09-12T09:25:43.244Z,27.74
2018-09-12T09:28:15.474Z,26.72
2018-09-12T09:30:47.472Z,25.64
2018-09-12T09:33:19.046Z,24.94
2018-09-12T09:35:50.300Z,23.91
2018-09-12T09:38:20.564Z,22.85
2018-09-12T09:40:50.904Z,22.36
2018-09-12T09:43:21.288Z,21.93
2018-09-12T09:45:51.643Z,21.72
2018-09-12T09:48:23.478Z,21.03
2018-09-12T09:50:54.048Z,21.12
2018-09-12T09:53:24.204Z,19.18
2018-09-12T09:55:54.343Z,19.44
2018-09-12T09:58:27.838Z,19.27
2018-09-12T10:01:07.188Z,19.14
2018-09-12T10:03:46.676Z,18.89
2018-09-12T10:06:21.203Z,18.64
2018-09-12T10:08:56.026Z,18.71
2018-09-12T10:11:31.345Z,19.74
2018-09-12T10:14:08.756Z,18.54
2018-09-12T10:16:40.849Z,18.43
2018-09-12T10:19:15.389Z,18.55
2018-09-12T10:21:46.921Z,17.96
2018-09-12T10:24:18.481Z,18.48
2018-09-12T10:26:49.317Z,18.00
2018-09-12T10:29:22.074Z,19.12
2018-09-12T10:31:59.112Z,18.61
2018-09-12T10:34:29.371Z,18.71
2018-09-12T10:37:02.166Z,19.65
2018-09-12T10:39:32.917Z,18.88
2018-09-12T10:42:07.400Z,20.55
2018-09-12T10:44:37.609Z,20.25
2018-09-12T10:47:08.439Z,19.94
2018-09-12T10:49:40.825Z,20.06
2018-09-12T10:52:11.614Z,19.77
2018-09-12T10:54:41.925Z,20.02
2018-09-12T10:57:11.895Z,20.62
2018-09-12T10:59:42.827Z,20.05
2018-09-12T11:02:13.461Z,19.32
2018-09-12T11:04:44.059Z,18.60
2018-09-12T11:07:15.490Z,17.72
2018-09-12T11:09:45.543Z,19.56
2018-09-12T11:12:15.712Z,18.51
2018-09-12T11:14:46.341Z,19.69
2018-09-12T11:17:16.523Z,19.28
2018-09-12T11:19:46.710Z,19.28
2018-09-12T11:22:33.158Z,20.36
2018-09-12T11:25:03.985Z,19.50
2018-09-12T11:27:36.055Z,19.02
2018-09-12T11:30:06.872Z,17.89
2018-09-12T11:32:47.991Z,16.30
2018-09-12T11:35:19.673Z,16.54
2018-09-12T11:37:49.809Z,15.94
2018-09-12T11:40:20.033Z,15.33
2018-09-12T11:42:50.093Z,14.76
2018-09-12T11:45:21.239Z,13.52
2018-09-12T11:47:51.913Z,13.34
2018-09-12T11:50:24.757Z,13.42
2018-09-12T11:52:54.953Z,14.19
2018-09-12T11:55:25.841Z,14.19
2018-09-12T11:57:56.592Z,13.84
2018-09-12T12:00:27.403Z,13.56
2018-09-12T12:02:57.690Z,13.16
2018-09-12T12:05:29.639Z,13.63
2018-09-12T12:08:00.087Z,13.86
2018-09-12T12:10:31.016Z,13.73
2018-09-12T12:13:01.142Z,13.90
2018-09-12T12:15:32.959Z,14.05
2018-09-12T12:18:04.107Z,14.91
2018-09-12T12:20:35.141Z,14.46
2018-09-12T12:23:07.131Z,14.88
2018-09-12T12:25:37.365Z,14.29
2018-09-12T12:28:07.521Z,14.84
2018-09-12T12:30:37.972Z,15.00
2018-09-12T12:33:08.199Z,14.99
2018-09-12T12:35:38.287Z,14.86
2018-09-12T12:38:09.374Z,15.37
2018-09-12T12:40:41.239Z,14.95
2018-09-12T12:43:15.287Z,15.62
2018-09-12T12:45:47.725Z,15.08
2018-09-12T12:48:20.145Z,16.50
2018-09-12T12:50:51.112Z,17.20
2018-09-12T12:53:21.466Z,16.59
2018-09-12T12:55:54.080Z,16.95
2018-09-12T12:58:25.428Z,17.45
2018-09-12T13:00:57.764Z,18.46
2018-09-12T13:03:29.038Z,18.96
2018-09-12T13:05:59.514Z,18.08
2018-09-12T13:08:29.614Z,18.63
2018-09-12T13:11:00.008Z,18.10
2018-09-12T13:13:30.210Z,19.28
2018-09-12T13:16:01.510Z,17.98
2018-09-12T13:18:31.674Z,16.99
2018-09-12T13:21:03.234Z,16.92
2018-09-12T13:23:33.352Z,17.51
2018-09-12T13:26:06.130Z,18.74
2018-09-12T13:28:36.334Z,18.85
2018-09-12T13:31:12.362Z,18.86
2018-09-12T13:33:43.345Z,18.65
2018-09-12T13:36:15.129Z,18.97
2018-09-12T13:38:45.947Z,18.90
2018-09-12T13:41:16.046Z,18.80
2018-09-12T13:43:48.393Z,18.44
2018-09-12T13:46:18.318Z,17.74
2018-09-12T13:48:49.714Z,18.20
2018-09-12T13:51:20.312Z,17.76
2018-09-12T13:53:51.207Z,17.60
2018-09-12T13:56:21.721Z,18.14
2018-09-12T13:58:53.947Z,16.94
2018-09-12T14:01:26.765Z,17.21
2018-09-12T14:03:58.884Z,16.96
2018-09-12T14:06:31.603Z,17.40
2018-09-12T14:09:03.059Z,17.78
2018-09-12T14:11:34.064Z,17.00
2018-09-12T14:14:04.633Z,17.09
2018-09-12T14:16:36.049Z,15.95
2018-09-12T14:19:06.301Z,15.91
2018-09-12T14:21:38.260Z,16.40
2018-09-12T14:24:09.641Z,15.50
2018-09-12T14:26:41.027Z,16.35
2018-09-12T14:29:11.194Z,15.97
2018-09-12T14:31:41.923Z,16.78
2018-09-12T14:34:12.049Z,15.85
2018-09-12T14:36:43.176Z,16.05
2018-09-12T14:39:14.378Z,16.33
2018-09-12T14:41:46.173Z,18.25
2018-09-12T14:44:17.663Z,18.57
2018-09-12T14:46:47.838Z,18.41
2018-09-12T14:49:19.769Z,18.35
2018-09-12T14:51:52.319Z,18.15
2018-09-12T14:54:22.362Z,17.89
2018-09-12T14:56:52.613Z,17.72
2018-09-12T14:59:23.837Z,18.33
2018-09-12T15:01:55.387Z,18.48
2018-09-12T15:04:26.647Z,19.42
2018-09-12T15:06:57.339Z,18.10
2018-09-12T15:09:28.587Z,17.78
2018-09-12T15:12:00.496Z,19.53
2018-09-12T15:14:31.346Z,19.17
2018-09-12T15:17:02.717Z,19.91
2018-09-12T15:19:39.321Z,19.97
2018-09-12T15:22:09.934Z,20.08
2018-09-12T15:24:40.722Z,19.87
2018-09-12T15:27:11.514Z,20.24
2018-09-12T15:29:42.691Z,21.01
2018-09-12T15:32:14.173Z,20.77
2018-09-12T15:34:45.245Z,19.24
2018-09-12T15:37:17.679Z,20.18
2018-09-12T15:39:49.255Z,20.42
2018-09-12T15:42:20.336Z,21.37
2018-09-12T15:44:51.478Z,21.49
2018-09-12T15:47:21.870Z,20.89
2018-09-12T15:49:53.056Z,21.40
2018-09-12T15:52:24.106Z,21.50
2018-09-12T15:54:58.631Z,22.57
2018-09-12T15:57:28.813Z,21.14
2018-09-12T15:59:58.908Z,21.50
2018-09-12T16:02:30.276Z,22.14
2018-09-12T16:05:01.448Z,22.41
2018-09-12T16:07:31.868Z,23.56
2018-09-12T16:10:02.006Z,23.16
2018-09-12T16:12:33.312Z,23.90
2018-09-12T16:15:04.607Z,24.28
2018-09-12T16:17:34.789Z,23.83
2018-09-12T16:20:05.666Z,24.12
2018-09-12T16:22:36.115Z,23.62
2018-09-12T16:25:07.536Z,23.49
2018-09-12T16:27:38.182Z,24.21
2018-09-12T16:30:08.880Z,23.98
2018-09-12T16:32:39.106Z,23.60
2018-09-12T16:35:10.364Z,25.07
2018-09-12T16:37:42.562Z,23.87
2018-09-12T16:40:12.816Z,23.96
2018-09-12T16:42:43.912Z,24.02
2018-09-12T16:45:13.974Z,24.99
2018-09-12T16:47:44.250Z,26.00
2018-09-12T16:50:15.347Z,25.79
2018-09-12T16:52:45.592Z,26.10
2018-09-12T16:55:16.166Z,25.41
2018-09-12T16:57:48.846Z,26.46
2018-09-12T17:00:19.073Z,27.00
2018-09-12T17:02:49.771Z,26.99
2018-09-12T17:05:20.167Z,26.65
2018-09-12T17:07:51.356Z,27.18
2018-09-12T17:10:22.252Z,27.10
2018-09-12T17:12:52.370Z,28.33
2018-09-12T17:15:23.902Z,28.89
2018-09-12T17:17:56.131Z,29.31
2018-09-12T17:20:27.864Z,28.48
2018-09-12T17:22:58.959Z,29.11
2018-09-12T17:25:30.308Z,29.65
2018-09-12T17:28:00.574Z,30.49
2018-09-12T17:30:30.966Z,30.32
2018-09-12T17:33:02.469Z,30.88
2018-09-12T17:35:34.877Z,31.57
2018-09-12T17:38:08.130Z,31.46
2018-09-12T17:40:39.624Z,32.06
2018-09-12T17:43:10.578Z,31.97
2018-09-12T17:45:41.105Z,32.81
2018-09-12T17:48:11.836Z,32.94
2018-09-12T17:50:43.338Z,33.27
2018-09-12T17:53:14.734Z,32.84
2018-09-12T17:55:46.052Z,33.94
2018-09-12T17:58:16.930Z,33.36
2018-09-12T18:00:47.976Z,34.39
2018-09-12T18:03:18.870Z,33.63
2018-09-12T18:05:49.732Z,33.83
2018-09-12T18:08:21.876Z,33.64
2018-09-12T18:10:53.949Z,34.73
2018-09-12T18:13:24.156Z,34.05
2018-09-12T18:15:55.194Z,34.25
2018-09-12T18:18:25.290Z,35.40
2018-09-12T18:20:55.418Z,35.97
2018-09-12T18:23:27.064Z,36.68
2018-09-12T18:26:01.528Z,37.30
2018-09-12T18:28:32.606Z,37.23
2018-09-12T18:31:03.390Z,37.53
2018-09-12T18:33:39.756Z,38.18
2018-09-12T18:36:10.540Z,38.57
2018-09-12T18:38:41.827Z,38.51
2018-09-12T18:41:12.403Z,38.80
2018-09-12T18:43:42.603Z,39.03
2018-09-12T18:46:12.806Z,38.66
2018-09-12T18:48:44.368Z,39.49
2018-09-12T18:51:15.497Z,39.62
2018-09-12T18:53:48.115Z,40.39
2018-09-12T18:56:19.942Z,41.52
2018-09-12T18:58:52.039Z,41.77
2018-09-12T19:01:33.203Z,42.14
2018-09-12T19:04:03.973Z,42.55
2018-09-12T19:06:34.005Z,42.63
2018-09-12T19:09:04.839Z,41.51
2018-09-12T19:11:36.126Z,41.54
2018-09-12T19:14:06.282Z,41.88
2018-09-12T19:16:37.531Z,42.61
2018-09-12T19:19:07.727Z,43.04
2018-09-12T19:21:38.909Z,43.49
2018-09-12T19:24:09.867Z,44.46
2018-09-12T19:26:40.836Z,46.59
2018-09-12T19:29:11.818Z,45.97
2018-09-12T19:31:42.730Z,47.62
2018-09-12T19:34:12.814Z,47.46
2018-09-12T19:36:43.933Z,47.64
2018-09-12T19:39:15.555Z,48.08
2018-09-12T19:41:46.341Z,49.27
2018-09-12T19:44:18.180Z,50.05
2018-09-12T19:46:49.567Z,49.95
2018-09-12T19:49:22.195Z,50.52
2018-09-12T19:51:52.891Z,49.84
2018-09-12T19:54:23.823Z,49.76
2018-09-12T19:56:54.141Z,48.50
2018-09-12T19:59:26.183Z,49.56
2018-09-12T20:01:56.774Z,49.53
2018-09-12T20:04:30.105Z,49.20
2018-09-12T20:07:01.611Z,50.11
2018-09-12T20:09:37.362Z,49.75
2018-09-12T20:12:09.215Z,49.61
2018-09-12T20:14:39.351Z,49.60
2018-09-12T20:17:09.776Z,50.14
2018-09-12T20:19:40.843Z,50.63
2018-09-12T20:22:11.831Z,50.68
2018-09-12T20:24:43.226Z,50.79
2018-09-12T20:27:13.326Z,51.56
2018-09-12T20:29:47.182Z,50.90
2018-09-12T20:32:17.405Z,51.88
2018-09-12T20:34:48.932Z,51.88
2018-09-12T20:37:19.363Z,52.44
2018-09-12T20:39:49.568Z,54.12
2018-09-12T20:42:19.948Z,54.51
2018-09-12T20:44:50.109Z,54.01
2018-09-12T20:47:23.803Z,54.39
2018-09-12T20:49:54.932Z,54.85
2018-09-12T20:52:26.110Z,55.48
2018-09-12T20:54:56.191Z,54.52
2018-09-12T20:57:26.482Z,54.80
2018-09-12T20:59:57.060Z,55.77
2018-09-12T21:02:28.105Z,55.66
2018-09-12T21:04:59.392Z,54.63
2018-09-12T21:07:34.235Z,55.83
2018-09-12T21:10:06.128Z,55.74
2018-09-12T21:12:38.633Z,56.85
2018-09-12T21:15:10.382Z,56.85
2018-09-12T21:17:42.078Z,56.81
2018-09-12T21:20:12.225Z,56.21
2018-09-12T21:22:42.499Z,55.46
2018-09-12T21:25:13.806Z,56.12
2018-09-12T21:27:44.240Z,56.61
2018-09-12T21:30:14.964Z,56.43
2018-09-12T21:32:45.149Z,57.33
2018-09-12T21:35:16.430Z,55.70
2018-09-12T21:37:46.762Z,56.62
2018-09-12T21:40:24.574Z,56.26
2018-09-12T21:42:54.657Z,56.15
2018-09-12T21:45:28.285Z,56.40
2018-09-12T21:48:00.447Z,56.46
2018-09-12T21:50:30.585Z,56.49
2018-09-12T21:53:01.099Z,57.02
2018-09-12T21:55:31.353Z,56.26
2018-09-12T21:58:01.581Z,57.40
2018-09-12T22:00:32.445Z,57.99
2018-09-12T22:03:04.755Z,57.13
2018-09-12T22:05:35.444Z,58.23
2018-09-12T22:08:07.194Z,57.41
2018-09-12T22:10:38.321Z,58.08
2018-09-12T22:13:09.462Z,57.11
2018-09-12T22:15:39.654Z,57.44
2018-09-12T22:18:10.690Z,58.14
2018-09-12T22:20:40.842Z,58.88
2018-09-12T22:23:13.235Z,58.99
2018-09-12T22:25:44.949Z,59.14
2018-09-12T22:28:15.849Z,58.45
2018-09-12T22:30:45.878Z,58.89
2018-09-12T22:33:16.767Z,59.42
2018-09-12T22:35:47.684Z,58.91
2018-09-12T22:38:17.879Z,59.17
2018-09-12T22:40:48.275Z,60.74
2018-09-12T22:43:20.331Z,59.55
2018-09-12T22:45:51.277Z,58.67
2018-09-12T22:48:22.183Z,59.00
2018-09-12T22:50:52.357Z,60.04
2018-09-12T22:53:22.461Z,60.74
2018-09-12T22:55:53.094Z,59.29
2018-09-12T22:58:23.719Z,59.11
2018-09-12T23:00:53.837Z,59.41
2018-09-12T23:03:24.299Z,59.18
2018-09-12T23:05:54.304Z,58.99
2018-09-12T23:08:24.625Z,59.31
2018-09-12T23:10:54.991Z,59.30
2018-09-12T23:13:25.662Z,58.53
2018-09-12T23:15:56.496Z,58.81
2018-09-12T23:18:27.509Z,58.65
2018-09-12T23:20:57.615Z,57.29
2018-09-12T23:23:27.899Z,57.99
2018-09-12T23:25:58.137Z,58.71
2018-09-12T23:28:28.871Z,58.45
2018-09-12T23:30:59.875Z,59.46
2018-09-12T23:33:31.239Z,58.64
2018-09-12T23:36:02.926Z,57.84
2018-09-12T23:38:34.734Z,57.72
2018-09-12T23:41:07.129Z,57.50
2018-09-12T23:43:37.845Z,57.47
2018-09-12T23:46:09.805Z,57.27
2018-09-12T23:48:42.984Z,56.83
2018-09-12T23:51:14.158Z,56.59
2018-09-12T23:53:44.452Z,57.10
2018-09-12T23:56:16.098Z,57.96
2018-09-12T23:58:46.660Z,59.51
